Map

Track Data

SID SEASON NUMBER BASIN SUBBASIN NAME ISO_TIME NATURE LAT LON WMO_WIND WMO_PRES WMO_AGENCY TRACK_TYPE DIST2LAND LANDFALL IFLAG USA_AGENCY USA_ATCF_ID USA_LAT USA_LON USA_RECORD USA_STATUS USA_WIND USA_PRES USA_SSHS USA_R34_NE USA_R34_SE USA_R34_SW USA_R34_NW USA_R50_NE USA_R50_SE USA_R50_SW USA_R50_NW USA_R64_NE USA_R64_SE USA_R64_SW USA_R64_NW USA_POCI USA_ROCI USA_RMW USA_EYE TOKYO_LAT TOKYO_LON TOKYO_GRADE TOKYO_WIND TOKYO_PRES TOKYO_R50_DIR TOKYO_R50_LONG TOKYO_R50_SHORT TOKYO_R30_DIR TOKYO_R30_LONG TOKYO_R30_SHORT TOKYO_LAND CMA_LAT CMA_LON CMA_CAT CMA_WIND CMA_PRES HKO_LAT HKO_LON HKO_CAT HKO_WIND HKO_PRES NEWDELHI_LAT NEWDELHI_LON NEWDELHI_GRADE NEWDELHI_WIND NEWDELHI_PRES NEWDELHI_CI NEWDELHI_DP NEWDELHI_POCI REUNION_LAT REUNION_LON REUNION_TYPE REUNION_WIND REUNION_PRES REUNION_TNUM REUNION_CI REUNION_RMW REUNION_R34_NE REUNION_R34_SE REUNION_R34_SW REUNION_R34_NW REUNION_R50_NE REUNION_R50_SE REUNION_R50_SW REUNION_R50_NW REUNION_R64_NE REUNION_R64_SE REUNION_R64_SW REUNION_R64_NW BOM_LAT BOM_LON BOM_TYPE BOM_WIND BOM_PRES BOM_TNUM BOM_CI BOM_RMW BOM_R34_NE BOM_R34_SE BOM_R34_SW BOM_R34_NW BOM_R50_NE BOM_R50_SE BOM_R50_SW BOM_R50_NW BOM_R64_NE BOM_R64_SE BOM_R64_SW BOM_R64_NW BOM_ROCI BOM_POCI BOM_EYE BOM_POS_METHOD BOM_PRES_METHOD NADI_LAT NADI_LON NADI_CAT NADI_WIND NADI_PRES WELLINGTON_LAT WELLINGTON_LON WELLINGTON_WIND WELLINGTON_PRES DS824_LAT DS824_LON DS824_STAGE DS824_WIND DS824_PRES TD9636_LAT TD9636_LON TD9636_STAGE TD9636_WIND TD9636_PRES TD9635_LAT TD9635_LON TD9635_WIND TD9635_PRES TD9635_ROCI NEUMANN_LAT NEUMANN_LON NEUMANN_CLASS NEUMANN_WIND NEUMANN_PRES MLC_LAT MLC_LON MLC_CLASS MLC_WIND MLC_PRES USA_GUST BOM_GUST BOM_GUST_PER REUNION_GUST REUNION_GUST_PER USA_SEAHGT USA_SEARAD_NE USA_SEARAD_SE USA_SEARAD_SW USA_SEARAD_NW STORM_SPEED STORM_DIR
1908001S13062 1908 2 SI MM NOT_NAMED 1908-01-01 06:00:00 NR -12.7000 62.0000 spur-split 946 896 __________O___ -1 -12.7000 62.0000 7 9 208
1908001S13062 1908 2 SI MM NOT_NAMED 1908-01-01 09:00:00 NR -13.0845 61.7911 spur-split 896 857 __________P___ -1 -13.0845 61.7911 7 9 208
1908001S13062 1908 2 SI MM NOT_NAMED 1908-01-01 12:00:00 NR -13.4652 61.5855 spur-split 847 807 __________P___ -1 -13.4652 61.5855 7 9 208
1908001S13062 1908 2 SI MM NOT_NAMED 1908-01-01 15:00:00 NR -13.8382 61.3872 spur-split 807 757 __________P___ -1 -13.8382 61.3872 7 8 207
1908001S13062 1908 2 SI MM NOT_NAMED 1908-01-01 18:00:00 NR -14.2000 61.2000 spur-split 757 717 __________O___ -1 -14.2000 61.2000 7 8 206
1908001S13062 1908 2 SI MM NOT_NAMED 1908-01-01 21:00:00 NR -14.5474 61.0273 spur-split 717 673 __________P___ -1 -14.5474 61.0273 7 8 205
1908001S13062 1908 2 SI MM NOT_NAMED 1908-01-02 00:00:00 NR -14.8799 60.8698 spur-split 673 633 __________P___ -1 -14.8799 60.8698 7 7 204
1908001S13062 1908 2 SI MM NOT_NAMED 1908-01-02 03:00:00 NR -15.1975 60.7274 spur-split 633 599 __________P___ -1 -15.1975 60.7274 7 7 203
1908001S13062 1908 2 SI MM NOT_NAMED 1908-01-02 06:00:00 NR -15.5000 60.6000 spur-split 599 564 __________O___ -1 -15.5000 60.6000 7 6 202
1908001S13062 1908 2 SI MM NOT_NAMED 1908-01-02 09:00:00 NR -15.7853 60.4814 spur-split 564 540 __________P___ -1 -15.7853 60.4814 7 6 201
1908001S13062 1908 2 SI MM NOT_NAMED 1908-01-02 12:00:00 NR -16.0574 60.3773 spur-split 530 506 __________P___ -1 -16.0574 60.3773 7 6 199
1908001S13062 1908 2 SI MM NOT_NAMED 1908-01-02 15:00:00 NR -16.3259 60.2845 spur-split 506 472 __________P___ -1 -16.3259 60.2845 7 6 197
1908001S13062 1908 2 SI MM NOT_NAMED 1908-01-02 18:00:00 NR -16.6000 60.2000 spur-split 472 438 __________O___ -1 -16.6000 60.2000 7 6 196
1908001S13062 1908 2 SI MM NOT_NAMED 1908-01-02 21:00:00 NR -16.9050 60.1137 spur-split 438 404 __________P___ -1 -16.9050 60.1137 7 6 195
1908001S13062 1908 2 SI MM NOT_NAMED 1908-01-03 00:00:00 NR -17.2150 60.0350 spur-split 404 378 __________P___ -1 -17.2150 60.0350 7 6 193
1908001S13062 1908 2 SI MM NOT_NAMED 1908-01-03 03:00:00 NR -17.5175 59.9637 spur-split 378 346 __________P___ -1 -17.5175 59.9637 7 6 193
1908001S13062 1908 2 SI MM NOT_NAMED 1908-01-03 06:00:00 NR -17.8000 59.9000 spur-split 346 322 __________O___ -1 -17.8000 59.9000 7 5 193
1908001S13062 1908 2 SI MM NOT_NAMED 1908-01-03 09:00:00 NR -18.0425 59.8346 spur-split 322 298 __________P___ -1 -18.0425 59.8346 7 5 194
1908001S13062 1908 2 SI MM NOT_NAMED 1908-01-03 12:00:00 NR -18.2650 59.7775 spur-split 298 275 __________P___ -1 -18.2650 59.7775 7 5 192
1908001S13062 1908 2 SI MM NOT_NAMED 1908-01-03 15:00:00 NR -18.4800 59.7316 spur-split 275 261 __________P___ -1 -18.4800 59.7316 7 4 189
1908001S13062 1908 2 SI MM NOT_NAMED 1908-01-03 18:00:00 NR -18.7000 59.7000 spur-split 261 248 __________O___ -1 -18.7000 59.7000 7 5 186
1908001S13062 1908 2 SI MM NOT_NAMED 1908-01-03 21:00:00 NR -18.9469 59.6775 spur-split 248 232 __________P___ -1 -18.9469 59.6775 7 5 185
1908001S13062 1908 2 SI MM NOT_NAMED 1908-01-04 00:00:00 NR -19.2000 59.6700 spur-split 232 222 __________P___ -1 -19.2000 59.6700 7 5 178
1908001S13062 1908 2 SI MM NOT_NAMED 1908-01-04 03:00:00 NR -19.4531 59.6775 spur-split 217 209 __________P___ -1 -19.4531 59.6775 7 5 175
1908001S13062 1908 2 SI MM NOT_NAMED 1908-01-04 06:00:00 NR -19.7000 59.7000 spur-split 209 203 __________O___ -1 -19.7000 59.7000 7 5 174
1908001S13062 1908 2 SI MM NOT_NAMED 1908-01-04 09:00:00 NR -19.9444 59.7315 spur-split 203 201 __________P___ -1 -19.9444 59.7315 7 5 172
1908001S13062 1908 2 SI MM NOT_NAMED 1908-01-04 12:00:00 NR -20.1800 59.7774 spur-split 208 208 __________P___ -1 -20.1800 59.7774 7 5 168
1908001S13062 1908 2 SI MM NOT_NAMED 1908-01-04 15:00:00 NR -20.4006 59.8347 spur-split 208 208 __________P___ -1 -20.4006 59.8347 7 4 165
1908001S13062 1908 2 SI MM NOT_NAMED 1908-01-04 18:00:00 NR -20.6000 59.9000 spur-split 221 221 __________O___ -1 -20.6000 59.9000 7 4 163
1908001S13062 1908 2 SI MM NOT_NAMED 1908-01-04 21:00:00 NR -20.7593 59.9518 spur-split 235 235 __________P___ -1 -20.7593 59.9518 7 3 161
1908001S13062 1908 2 SI MM NOT_NAMED 1908-01-05 00:00:00 NR -20.8999 60.0129 spur-split 238 238 __________P___ -1 -20.8999 60.0129 7 3 155
1908001S13062 1908 2 SI MM NOT_NAMED 1908-01-05 03:00:00 NR -21.0405 60.0925 spur-split 251 251 __________P___ -1 -21.0405 60.0925 7 3 150
1908001S13062 1908 2 SI MM NOT_NAMED 1908-01-05 06:00:00 NR -21.2000 60.2000 spur-split 269 269 __________O___ -1 -21.2000 60.2000 7 4 148
1908001S13062 1908 2 SI MM NOT_NAMED 1908-01-05 09:00:00 NR -21.4157 60.3420 spur-split 287 287 __________P___ -1 -21.4157 60.3420 7 5 147
1908001S13062 1908 2 SI MM NOT_NAMED 1908-01-05 12:00:00 NR -21.6500 60.5122 spur-split 319 319 __________P___ -1 -21.6500 60.5122 7 6 145
1908001S13062 1908 2 SI MM NOT_NAMED 1908-01-05 15:00:00 NR -21.8844 60.7014 spur-split 348 348 __________P___ -1 -21.8844 60.7014 7 6 141
1908001S13062 1908 2 SI MM NOT_NAMED 1908-01-05 18:00:00 NR -22.1000 60.9000 spur-split 376 376 __________O___ -1 -22.1000 60.9000 7 5 137
1908001S13062 1908 2 SI MM NOT_NAMED 1908-01-05 21:00:00 NR -22.2829 61.1000 spur-split 405 405 __________P___ -1 -22.2829 61.1000 7 5 132
1908001S13062 1908 2 SI MM NOT_NAMED 1908-01-06 00:00:00 NR -22.4376 61.3000 spur-split 428 428 __________P___ -1 -22.4376 61.3000 7 5 128
1908001S13062 1908 2 SI MM NOT_NAMED 1908-01-06 03:00:00 NR -22.5736 61.4999 spur-split 457 457 __________P___ -1 -22.5736 61.4999 7 5 125
1908001S13062 1908 2 SI MM NOT_NAMED 1908-01-06 06:00:00 NR -22.7000 61.7000 spur-split 481 __________O___ -1 -22.7000 61.7000 7 4 124

About IBTrACS Database

This database is a web-friendly format of International Best Track Archive for Climate Stewardship (IBTrACS), a global best track data archive curated by NOAA dating back to 1842.

Updated: 2021-12-08